createdAt,value
2023-05-24T00:00:47.962Z,49.20
2023-05-24T00:03:16.351Z,49.20
2023-05-24T00:05:43.544Z,49.30
2023-05-24T00:08:10.598Z,49.30
2023-05-24T00:10:37.412Z,49.40
2023-05-24T00:13:04.252Z,49.50
2023-05-24T00:15:31.293Z,49.60
2023-05-24T00:17:58.169Z,49.60
2023-05-24T00:20:25.337Z,49.60
2023-05-24T00:22:52.476Z,50.10
2023-05-24T00:25:19.283Z,49.70
2023-05-24T00:27:46.152Z,49.50
2023-05-24T00:30:13.130Z,50.00
2023-05-24T00:35:08.303Z,49.40
2023-05-24T00:37:35.122Z,49.50
2023-05-24T00:40:01.912Z,49.60
2023-05-24T00:42:28.924Z,49.40
2023-05-24T00:44:56.145Z,49.40
2023-05-24T00:47:23.092Z,51.00
2023-05-24T00:49:50.323Z,49.60
2023-05-24T00:52:17.950Z,49.40
2023-05-24T00:54:45.000Z,49.80
2023-05-24T00:57:14.042Z,49.40
2023-05-24T00:59:41.180Z,49.80
2023-05-24T01:02:07.989Z,49.20
2023-05-24T01:04:35.735Z,49.20
2023-05-24T01:07:05.687Z,49.00
2023-05-24T01:09:50.463Z,49.10
2023-05-24T01:12:36.872Z,49.60
2023-05-24T01:15:15.758Z,49.00
2023-05-24T01:17:54.383Z,49.00
2023-05-24T01:20:23.587Z,49.00
2023-05-24T01:22:56.699Z,49.10
2023-05-24T01:25:38.983Z,49.20
2023-05-24T01:28:08.530Z,49.10
2023-05-24T01:30:36.459Z,49.10
2023-05-24T01:33:03.669Z,49.60
2023-05-24T01:35:30.581Z,49.40
2023-05-24T01:37:57.370Z,49.30
2023-05-24T01:40:24.304Z,49.80
2023-05-24T01:43:26.399Z,49.30
2023-05-24T01:46:06.670Z,49.80
2023-05-24T01:49:05.108Z,50.00
2023-05-24T01:51:51.363Z,49.40
2023-05-24T01:54:22.695Z,49.50
2023-05-24T01:56:52.482Z,50.00
2023-05-24T01:59:22.555Z,50.10
2023-05-24T02:01:50.185Z,50.10
2023-05-24T02:04:17.840Z,50.10
2023-05-24T02:06:45.069Z,50.10
2023-05-24T02:09:12.234Z,50.10
2023-05-24T02:11:39.076Z,50.20
2023-05-24T02:14:06.053Z,50.20
2023-05-24T02:16:33.345Z,50.20
2023-05-24T02:19:00.179Z,50.20
2023-05-24T02:21:28.848Z,50.20
2023-05-24T02:23:55.649Z,50.30
2023-05-24T02:26:22.511Z,50.40
2023-05-24T02:28:49.382Z,50.40
2023-05-24T02:31:16.239Z,50.40
2023-05-24T02:33:43.531Z,50.70
2023-05-24T02:36:10.926Z,50.70
2023-05-24T02:38:37.723Z,50.00
2023-05-24T02:41:04.556Z,50.40
2023-05-24T02:43:31.637Z,50.00
2023-05-24T02:45:58.588Z,49.90
2023-05-24T02:48:25.457Z,50.10
2023-05-24T02:50:52.336Z,50.50
2023-05-24T02:53:19.166Z,50.60
2023-05-24T02:55:46.714Z,50.70
2023-05-24T02:58:13.657Z,50.70
2023-05-24T03:00:40.670Z,50.60
2023-05-24T03:03:07.814Z,50.70
2023-05-24T03:05:34.813Z,50.60
2023-05-24T03:08:01.667Z,50.60
2023-05-24T03:10:28.531Z,50.60
2023-05-24T03:12:55.414Z,50.60
2023-05-24T03:15:22.984Z,50.50
2023-05-24T03:17:50.096Z,50.60
2023-05-24T03:20:17.703Z,50.50
2023-05-24T03:22:45.533Z,50.40
2023-05-24T03:25:12.645Z,50.40
2023-05-24T03:27:39.439Z,50.40
2023-05-24T03:30:07.043Z,50.60
2023-05-24T03:32:40.714Z,50.50
2023-05-24T03:35:08.048Z,50.50
2023-05-24T03:37:34.959Z,50.50
2023-05-24T03:40:01.842Z,50.40
2023-05-24T03:42:42.277Z,51.20
2023-05-24T03:45:10.669Z,50.40
2023-05-24T03:47:38.264Z,50.50
2023-05-24T03:50:05.751Z,51.40
2023-05-24T03:52:32.552Z,50.50
2023-05-24T03:54:59.378Z,50.50
2023-05-24T03:57:26.613Z,50.50
2023-05-24T03:59:53.439Z,50.50
2023-05-24T04:02:20.449Z,50.50
2023-05-24T04:04:47.387Z,50.90
2023-05-24T04:07:15.458Z,50.30
2023-05-24T04:09:43.207Z,50.30
2023-05-24T04:12:10.063Z,50.40
2023-05-24T04:14:37.007Z,50.40
2023-05-24T04:17:05.779Z,50.40
2023-05-24T04:19:32.741Z,50.30
2023-05-24T04:21:59.928Z,50.30
2023-05-24T04:24:26.823Z,50.30
2023-05-24T04:26:54.123Z,50.40
2023-05-24T04:29:21.387Z,50.40
2023-05-24T04:31:48.521Z,50.40
2023-05-24T04:34:15.435Z,50.50
2023-05-24T04:36:42.246Z,50.60
2023-05-24T04:39:11.512Z,50.50
2023-05-24T04:41:38.720Z,50.50
2023-05-24T04:44:05.594Z,50.50
2023-05-24T04:46:36.193Z,50.50
2023-05-24T04:49:03.258Z,50.50
2023-05-24T04:51:30.192Z,50.50
2023-05-24T04:53:56.971Z,50.50
2023-05-24T04:58:51.473Z,50.00
2023-05-24T05:01:19.090Z,50.50
2023-05-24T05:03:46.238Z,51.20
2023-05-24T05:06:13.730Z,47.60
2023-05-24T05:08:40.646Z,50.20
2023-05-24T05:11:07.705Z,50.30
2023-05-24T05:13:34.491Z,50.20
2023-05-24T05:16:01.944Z,50.20
2023-05-24T05:18:28.811Z,50.20
2023-05-24T05:20:55.950Z,50.20
2023-05-24T05:23:22.808Z,50.10
2023-05-24T05:25:49.660Z,50.10
2023-05-24T05:28:16.844Z,50.00
2023-05-24T05:30:43.979Z,50.10
2023-05-24T05:33:11.083Z,50.10
2023-05-24T05:35:38.221Z,50.20
2023-05-24T05:38:05.043Z,50.30
2023-05-24T05:40:31.975Z,50.20
2023-05-24T05:42:58.834Z,50.10
2023-05-24T05:45:25.874Z,50.10
2023-05-24T05:47:52.814Z,50.00
2023-05-24T05:50:19.813Z,50.20
2023-05-24T05:52:46.610Z,50.20
2023-05-24T05:55:13.493Z,50.30
2023-05-24T05:57:40.981Z,50.20
2023-05-24T06:00:08.843Z,50.30
2023-05-24T06:02:41.388Z,50.10
2023-05-24T06:05:08.815Z,50.00
2023-05-24T06:07:37.476Z,50.00
2023-05-24T06:10:04.859Z,50.10
2023-05-24T06:12:31.917Z,50.00
2023-05-24T06:14:59.599Z,50.50
2023-05-24T06:17:27.940Z,49.80
2023-05-24T06:19:55.875Z,50.00
2023-05-24T06:22:23.001Z,47.80
2023-05-24T06:24:49.833Z,49.90
2023-05-24T06:27:16.693Z,49.80
2023-05-24T06:29:43.626Z,49.80
2023-05-24T06:32:10.539Z,50.00
2023-05-24T06:34:37.357Z,50.10
2023-05-24T06:37:04.402Z,50.10
2023-05-24T06:39:31.302Z,50.00
2023-05-24T06:41:58.176Z,49.80
2023-05-24T06:44:31.851Z,49.50
2023-05-24T06:46:58.742Z,49.70
2023-05-24T06:49:25.902Z,50.20
2023-05-24T06:51:52.969Z,49.60
2023-05-24T06:54:19.864Z,50.10
2023-05-24T06:56:46.815Z,50.20
2023-05-24T06:59:13.744Z,50.30
2023-05-24T07:01:42.998Z,50.30
2023-05-24T07:04:10.213Z,50.40
2023-05-24T07:06:39.841Z,50.30
2023-05-24T07:09:08.355Z,50.40
2023-05-24T07:11:35.239Z,50.50
2023-05-24T07:14:02.180Z,50.50
2023-05-24T07:16:29.031Z,50.40
2023-05-24T07:18:56.389Z,50.40
2023-05-24T07:21:23.236Z,50.20
2023-05-24T07:23:51.855Z,50.20
2023-05-24T07:26:18.666Z,50.20
2023-05-24T07:28:45.978Z,50.10
2023-05-24T07:31:13.368Z,50.10
2023-05-24T07:33:40.545Z,50.00
2023-05-24T07:36:08.645Z,50.00
2023-05-24T07:38:36.241Z,49.90
2023-05-24T07:41:04.800Z,49.90
2023-05-24T07:43:31.738Z,50.00
2023-05-24T07:45:58.585Z,50.10
2023-05-24T07:48:25.927Z,50.00
2023-05-24T07:50:52.902Z,49.80
2023-05-24T07:53:20.001Z,50.40
2023-05-24T07:55:47.009Z,49.40
2023-05-24T07:58:13.870Z,49.20
2023-05-24T08:00:41.460Z,49.00
2023-05-24T08:03:08.945Z,48.90
2023-05-24T08:05:35.893Z,48.90
2023-05-24T08:08:02.897Z,49.00
2023-05-24T08:10:29.673Z,48.60
2023-05-24T08:12:56.791Z,48.70
2023-05-24T08:15:23.687Z,49.10
2023-05-24T08:17:50.707Z,49.20
2023-05-24T08:20:17.867Z,49.00
2023-05-24T08:22:44.858Z,48.00
2023-05-24T08:25:11.924Z,48.50
2023-05-24T08:27:38.760Z,48.60
2023-05-24T08:30:07.071Z,48.80
2023-05-24T08:32:34.262Z,48.90
2023-05-24T08:35:14.827Z,48.90
2023-05-24T08:37:46.443Z,48.90
2023-05-24T08:40:13.679Z,47.90
2023-05-24T08:42:41.720Z,49.10
2023-05-24T08:45:13.925Z,48.90
2023-05-24T08:47:41.654Z,49.00
2023-05-24T08:50:09.426Z,49.10
2023-05-24T08:52:37.229Z,49.30
2023-05-24T08:55:05.638Z,49.30
2023-05-24T08:57:35.156Z,49.40
2023-05-24T09:00:02.275Z,49.30
2023-05-24T09:02:31.242Z,49.20
2023-05-24T09:04:59.612Z,48.90
2023-05-24T09:07:26.960Z,48.50
2023-05-24T09:10:06.854Z,48.60
2023-05-24T09:12:38.521Z,48.20
2023-05-24T09:15:08.205Z,48.20
2023-05-24T09:17:37.050Z,47.80
2023-05-24T09:20:07.196Z,47.90
2023-05-24T09:22:37.530Z,47.80
2023-05-24T09:25:08.201Z,48.00
2023-05-24T09:27:36.144Z,47.90
2023-05-24T09:30:05.477Z,47.70
2023-05-24T09:32:33.146Z,47.90
2023-05-24T09:35:00.209Z,47.30
2023-05-24T09:37:32.097Z,47.40
2023-05-24T09:39:59.916Z,47.50
2023-05-24T09:42:31.481Z,47.60
2023-05-24T09:45:02.020Z,47.70
2023-05-24T09:47:30.804Z,47.50
2023-05-24T09:49:58.102Z,47.50
2023-05-24T09:52:25.006Z,47.70
2023-05-24T09:54:52.338Z,47.60
2023-05-24T09:57:22.768Z,47.60
2023-05-24T09:59:52.993Z,47.00
2023-05-24T10:02:22.988Z,46.70
2023-05-24T10:04:57.585Z,46.50
2023-05-24T10:07:24.908Z,46.60
2023-05-24T10:09:52.415Z,46.40
2023-05-24T10:12:23.105Z,46.20
2023-05-24T10:14:52.947Z,46.20
2023-05-24T10:17:21.185Z,46.20
2023-05-24T10:19:48.536Z,46.40
2023-05-24T10:22:17.266Z,46.40
2023-05-24T10:24:50.615Z,46.10
2023-05-24T10:27:22.921Z,45.60
2023-05-24T10:30:15.189Z,45.70
2023-05-24T10:32:44.658Z,45.50
2023-05-24T10:35:14.877Z,45.90
2023-05-24T10:37:43.343Z,45.90
2023-05-24T10:40:21.157Z,45.60
2023-05-24T10:42:48.708Z,45.30
2023-05-24T10:45:27.907Z,45.40
2023-05-24T10:47:56.729Z,45.10
2023-05-24T10:50:24.112Z,45.30
2023-05-24T10:52:51.085Z,45.10
2023-05-24T10:55:19.952Z,44.20
2023-05-24T10:57:47.466Z,45.00
2023-05-24T11:00:30.699Z,45.10
2023-05-24T11:03:09.766Z,45.00
2023-05-24T11:05:53.060Z,45.30
2023-05-24T11:08:35.297Z,45.80
2023-05-24T11:13:41.065Z,45.30
2023-05-24T11:16:08.232Z,45.10
2023-05-24T11:18:38.627Z,45.00
2023-05-24T11:21:06.663Z,44.90
2023-05-24T11:23:36.001Z,44.50
2023-05-24T11:26:05.204Z,44.20
2023-05-24T11:28:32.710Z,44.30
2023-05-24T11:31:08.594Z,44.20
2023-05-24T11:33:35.517Z,44.00
2023-05-24T11:36:02.809Z,44.60
2023-05-24T11:38:29.638Z,44.60
2023-05-24T11:40:58.588Z,44.90
2023-05-24T11:43:25.487Z,44.90
2023-05-24T11:45:52.797Z,44.70
2023-05-24T11:48:20.506Z,44.70
2023-05-24T11:50:50.236Z,44.60
2023-05-24T11:53:20.439Z,44.30
2023-05-24T11:55:48.779Z,44.10
2023-05-24T11:58:29.779Z,43.80
2023-05-24T12:00:56.617Z,42.90
2023-05-24T12:03:23.707Z,43.30
2023-05-24T12:05:51.377Z,43.40
2023-05-24T12:08:18.330Z,43.30
2023-05-24T12:10:45.593Z,43.00
2023-05-24T12:13:23.806Z,43.10
2023-05-24T12:16:00.337Z,42.80
2023-05-24T12:18:27.584Z,43.00
2023-05-24T12:20:54.804Z,43.30
2023-05-24T12:23:24.853Z,43.40
2023-05-24T12:25:51.683Z,43.30
2023-05-24T12:28:24.787Z,41.80
2023-05-24T12:30:51.856Z,43.10
2023-05-24T12:33:20.081Z,43.80
2023-05-24T12:35:48.495Z,44.20
2023-05-24T12:38:19.452Z,43.90
2023-05-24T12:40:57.088Z,43.80
2023-05-24T12:43:35.270Z,43.50
2023-05-24T12:46:02.211Z,42.70
2023-05-24T12:48:29.256Z,42.10
2023-05-24T12:50:56.091Z,41.80
2023-05-24T12:53:24.565Z,42.00
2023-05-24T12:55:55.889Z,41.90
2023-05-24T12:58:22.797Z,41.70
2023-05-24T13:00:51.482Z,41.70
2023-05-24T13:03:18.652Z,41.30
2023-05-24T13:05:46.120Z,41.10
2023-05-24T13:08:13.597Z,40.90
2023-05-24T13:10:40.877Z,40.80
2023-05-24T13:13:07.913Z,40.50
2023-05-24T13:15:34.955Z,40.30
2023-05-24T13:18:01.808Z,40.20
2023-05-24T13:20:29.203Z,40.40
2023-05-24T13:22:56.084Z,40.50
2023-05-24T13:25:22.952Z,40.50
2023-05-24T13:27:49.969Z,40.50
2023-05-24T13:30:17.436Z,40.10
2023-05-24T13:32:44.571Z,39.90
2023-05-24T13:35:11.497Z,39.50
2023-05-24T13:37:38.882Z,38.90
2023-05-24T13:40:06.572Z,38.50
2023-05-24T13:42:33.431Z,37.60
2023-05-24T13:45:00.377Z,36.90
2023-05-24T13:47:35.859Z,36.40
2023-05-24T13:50:07.384Z,36.00
2023-05-24T13:52:34.586Z,35.40
2023-05-24T13:55:04.700Z,35.00
2023-05-24T13:57:49.538Z,34.80
2023-05-24T14:00:18.157Z,34.90
2023-05-24T14:02:45.062Z,35.20
2023-05-24T14:05:24.779Z,35.40
2023-05-24T14:07:53.402Z,35.10
2023-05-24T14:10:21.577Z,35.00
2023-05-24T14:12:59.430Z,34.50
2023-05-24T14:15:31.109Z,34.00
2023-05-24T14:18:00.800Z,33.50
2023-05-24T14:20:28.120Z,33.00
2023-05-24T14:22:56.459Z,33.10
2023-05-24T14:25:25.204Z,32.80
2023-05-24T14:27:52.023Z,32.50
2023-05-24T14:30:18.893Z,32.40
2023-05-24T14:32:45.715Z,32.60
2023-05-24T14:35:12.616Z,32.40
2023-05-24T14:37:39.443Z,32.00
2023-05-24T14:40:07.021Z,32.00
2023-05-24T14:42:33.976Z,31.50
2023-05-24T14:45:01.052Z,31.30
2023-05-24T14:47:27.925Z,31.30
2023-05-24T14:49:54.708Z,31.30
2023-05-24T14:52:21.718Z,30.90
2023-05-24T14:54:48.491Z,30.70
2023-05-24T14:57:15.797Z,30.40
2023-05-24T14:59:42.648Z,29.60
2023-05-24T15:02:09.476Z,29.60
2023-05-24T15:04:36.305Z,29.60
2023-05-24T15:07:03.234Z,29.60
2023-05-24T15:09:30.016Z,29.40
2023-05-24T15:11:56.841Z,29.30
2023-05-24T15:14:23.881Z,29.30
2023-05-24T15:16:50.901Z,29.30
2023-05-24T15:19:17.751Z,29.00
2023-05-24T15:21:44.850Z,28.60
2023-05-24T15:24:13.180Z,28.60
2023-05-24T15:26:40.020Z,28.50
2023-05-24T15:29:06.834Z,28.50
2023-05-24T15:31:33.922Z,29.10
2023-05-24T15:34:00.802Z,28.90
2023-05-24T15:36:27.638Z,29.00
2023-05-24T15:38:54.605Z,28.90
2023-05-24T15:41:21.437Z,28.80
2023-05-24T15:43:51.688Z,28.70
2023-05-24T15:46:21.765Z,28.10
2023-05-24T15:48:48.796Z,27.90
2023-05-24T15:53:45.591Z,27.40
2023-05-24T15:56:12.454Z,27.40
2023-05-24T15:58:39.432Z,27.20
2023-05-24T16:01:06.442Z,26.80
2023-05-24T16:03:33.493Z,26.70
2023-05-24T16:06:00.355Z,26.70
2023-05-24T16:08:28.531Z,26.80
2023-05-24T16:10:56.362Z,27.10
2023-05-24T16:13:23.283Z,27.20
2023-05-24T16:15:51.705Z,27.40
2023-05-24T16:18:22.577Z,27.50
2023-05-24T16:20:51.179Z,27.60
2023-05-24T16:23:19.421Z,27.50
2023-05-24T16:25:46.346Z,27.80
2023-05-24T16:28:13.146Z,27.20
2023-05-24T16:30:40.172Z,27.00
2023-05-24T16:33:07.135Z,26.90
2023-05-24T16:35:34.650Z,26.60
2023-05-24T16:38:01.577Z,26.30
2023-05-24T16:40:28.702Z,26.20
2023-05-24T16:42:55.681Z,26.20
2023-05-24T16:45:22.698Z,26.10
2023-05-24T16:47:49.618Z,26.00
2023-05-24T16:50:16.754Z,26.00
2023-05-24T16:52:45.173Z,25.90
2023-05-24T16:55:13.034Z,26.10
2023-05-24T16:57:39.872Z,26.00
2023-05-24T17:00:07.540Z,26.00
2023-05-24T17:02:35.251Z,25.80
2023-05-24T17:05:02.143Z,25.70
2023-05-24T17:07:29.089Z,25.50
2023-05-24T17:09:55.890Z,25.50
2023-05-24T17:12:22.775Z,25.50
2023-05-24T17:14:49.719Z,25.50
2023-05-24T17:17:16.601Z,25.90
2023-05-24T17:19:43.431Z,25.30
2023-05-24T17:22:11.329Z,25.30
2023-05-24T17:24:38.310Z,25.10
2023-05-24T17:27:05.387Z,24.90
2023-05-24T17:29:32.783Z,24.80
2023-05-24T17:31:59.644Z,25.90
2023-05-24T17:34:26.766Z,25.00
2023-05-24T17:36:53.598Z,25.10
2023-05-24T17:39:21.372Z,25.10
2023-05-24T17:41:48.165Z,25.20
2023-05-24T17:44:15.051Z,27.30
2023-05-24T17:46:41.948Z,25.40
2023-05-24T17:49:08.856Z,25.40
2023-05-24T17:51:38.794Z,25.50
2023-05-24T17:54:06.109Z,25.70
2023-05-24T17:56:32.952Z,25.80
2023-05-24T17:58:59.830Z,25.80
2023-05-24T18:01:28.829Z,26.00
2023-05-24T18:03:55.871Z,26.10
2023-05-24T18:06:22.775Z,25.20
2023-05-24T18:08:49.789Z,26.50
2023-05-24T18:11:16.788Z,26.70
2023-05-24T18:13:43.931Z,26.80
2023-05-24T18:16:12.109Z,27.00
2023-05-24T18:18:39.738Z,27.10
2023-05-24T18:21:09.477Z,27.10
2023-05-24T18:23:39.882Z,27.50
2023-05-24T18:26:11.016Z,27.50
2023-05-24T18:28:39.009Z,27.50
2023-05-24T18:31:14.740Z,27.50
2023-05-24T18:33:42.034Z,27.80
2023-05-24T18:36:09.101Z,27.90
2023-05-24T18:38:36.894Z,28.00
2023-05-24T18:41:06.278Z,28.20
2023-05-24T18:43:33.474Z,28.20
2023-05-24T18:46:00.981Z,29.50
2023-05-24T18:48:27.923Z,28.40
2023-05-24T18:50:55.192Z,28.90
2023-05-24T18:53:22.040Z,28.90
2023-05-24T18:55:48.886Z,29.00
2023-05-24T18:58:15.800Z,29.20
2023-05-24T19:00:42.915Z,29.00
2023-05-24T19:03:12.081Z,29.40
2023-05-24T19:05:42.580Z,29.20
2023-05-24T19:08:10.640Z,27.70
2023-05-24T19:10:37.578Z,29.70
2023-05-24T19:13:05.709Z,29.60
2023-05-24T19:15:34.413Z,30.00
2023-05-24T19:18:01.747Z,28.20
2023-05-24T19:20:28.813Z,30.10
2023-05-24T19:22:56.332Z,30.00
2023-05-24T19:25:23.377Z,30.80
2023-05-24T19:27:59.365Z,30.80
2023-05-24T19:30:27.207Z,30.90
2023-05-24T19:32:54.418Z,31.40
2023-05-24T19:35:21.354Z,31.30
2023-05-24T19:37:48.221Z,31.90
2023-05-24T19:40:15.102Z,31.60
2023-05-24T19:42:42.109Z,31.70
2023-05-24T19:45:09.614Z,31.90
2023-05-24T19:47:36.668Z,32.40
2023-05-24T19:50:03.868Z,32.20
2023-05-24T19:52:30.719Z,32.30
2023-05-24T19:54:57.652Z,32.50
2023-05-24T19:57:24.544Z,32.60
2023-05-24T19:59:51.516Z,32.80
2023-05-24T20:02:18.306Z,32.80
2023-05-24T20:04:45.142Z,32.90
2023-05-24T20:07:11.965Z,33.10
2023-05-24T20:09:38.915Z,33.70
2023-05-24T20:12:06.231Z,33.80
2023-05-24T20:14:33.102Z,34.00
2023-05-24T20:17:01.173Z,34.00
2023-05-24T20:19:28.352Z,34.10
2023-05-24T20:21:55.329Z,34.40
2023-05-24T20:24:22.127Z,34.60
2023-05-24T20:26:48.936Z,34.90
2023-05-24T20:29:15.804Z,34.90
2023-05-24T20:31:42.778Z,35.10
2023-05-24T20:34:09.693Z,35.20
2023-05-24T20:36:36.912Z,35.30
2023-05-24T20:39:04.161Z,35.40
2023-05-24T20:41:31.199Z,35.50
2023-05-24T20:43:58.073Z,35.60
2023-05-24T20:46:25.112Z,35.60
2023-05-24T20:48:53.626Z,35.90
2023-05-24T20:51:20.809Z,36.00
2023-05-24T20:53:49.062Z,36.00
2023-05-24T20:56:16.158Z,36.10
2023-05-24T20:58:43.894Z,36.40
2023-05-24T21:01:10.913Z,36.60
2023-05-24T21:03:37.827Z,36.80
2023-05-24T21:06:04.762Z,36.80
2023-05-24T21:08:31.623Z,36.80
2023-05-24T21:10:58.707Z,37.00
2023-05-24T21:13:25.965Z,36.90
2023-05-24T21:15:52.850Z,37.10
2023-05-24T21:18:19.670Z,37.30
2023-05-24T21:20:46.595Z,37.30
2023-05-24T21:23:13.461Z,37.40
2023-05-24T21:25:40.338Z,37.40
2023-05-24T21:28:07.230Z,37.40
2023-05-24T21:30:34.052Z,37.60
2023-05-24T21:33:00.939Z,37.60
2023-05-24T21:35:28.058Z,37.80
2023-05-24T21:37:55.001Z,38.50
2023-05-24T21:40:21.939Z,37.90
2023-05-24T21:42:48.746Z,38.00
2023-05-24T21:45:15.729Z,37.90
2023-05-24T21:47:43.070Z,37.90
2023-05-24T21:50:10.426Z,38.00
2023-05-24T21:52:37.403Z,38.10
2023-05-24T21:55:04.647Z,38.10
2023-05-24T21:57:31.548Z,38.30
2023-05-24T21:59:58.382Z,38.50
2023-05-24T22:02:25.233Z,38.50
2023-05-24T22:04:52.035Z,38.60
2023-05-24T22:07:18.857Z,38.60
2023-05-24T22:09:45.809Z,38.80
2023-05-24T22:12:12.697Z,38.70
2023-05-24T22:14:39.526Z,38.70
2023-05-24T22:17:06.638Z,38.80
2023-05-24T22:22:03.428Z,39.00
2023-05-24T22:24:30.844Z,38.90
2023-05-24T22:26:57.669Z,38.90
2023-05-24T22:29:24.486Z,39.00
2023-05-24T22:31:51.359Z,39.10
2023-05-24T22:34:28.829Z,39.20
2023-05-24T22:36:57.517Z,39.50
2023-05-24T22:39:25.043Z,39.30
2023-05-24T22:41:52.676Z,39.30
2023-05-24T22:44:19.666Z,39.40
2023-05-24T22:46:57.993Z,39.60
2023-05-24T22:49:24.815Z,39.70
2023-05-24T22:51:53.420Z,39.60
2023-05-24T22:54:20.310Z,39.70
2023-05-24T22:56:47.164Z,39.80
2023-05-24T22:59:14.122Z,39.80
2023-05-24T23:01:41.050Z,39.90
2023-05-24T23:04:20.358Z,40.10
2023-05-24T23:06:49.185Z,40.20
2023-05-24T23:09:17.638Z,40.30
2023-05-24T23:11:44.520Z,40.40
2023-05-24T23:14:11.711Z,40.60
2023-05-24T23:16:45.243Z,40.60
2023-05-24T23:19:18.314Z,40.70
2023-05-24T23:21:45.685Z,40.80
2023-05-24T23:24:15.892Z,40.80
2023-05-24T23:26:43.248Z,40.90
2023-05-24T23:29:10.439Z,41.00
2023-05-24T23:31:37.544Z,41.20
2023-05-24T23:34:05.406Z,41.20
2023-05-24T23:36:32.279Z,41.30
2023-05-24T23:38:59.121Z,41.30
2023-05-24T23:41:26.493Z,41.50
2023-05-24T23:43:53.445Z,41.60
2023-05-24T23:46:20.459Z,41.60
2023-05-24T23:48:47.452Z,41.70
2023-05-24T23:51:14.311Z,41.80
2023-05-24T23:53:41.129Z,41.80
2023-05-24T23:56:07.996Z,41.90
2023-05-24T23:58:35.941Z,42.00
